sensor_id;sensor_type;location;lat;lon;timestamp;P1;durP1;ratioP1;P2;durP2;ratioP2
43670;SDS011;29267;50.906;7.248;2024-03-22T00:01:47;34.53;;;16.25;;
43670;SDS011;29267;50.906;7.248;2024-03-22T00:04:13;28.23;;;14.30;;
43670;SDS011;29267;50.906;7.248;2024-03-22T00:06:40;34.90;;;15.55;;
43670;SDS011;29267;50.906;7.248;2024-03-22T00:09:06;35.63;;;15.50;;
43670;SDS011;29267;50.906;7.248;2024-03-22T00:11:32;39.05;;;16.73;;
43670;SDS011;29267;50.906;7.248;2024-03-22T00:13:58;34.95;;;16.63;;
43670;SDS011;29267;50.906;7.248;2024-03-22T00:16:24;36.33;;;16.95;;
43670;SDS011;29267;50.906;7.248;2024-03-22T00:18:49;38.20;;;17.23;;
43670;SDS011;29267;50.906;7.248;2024-03-22T00:21:15;35.38;;;17.20;;
43670;SDS011;29267;50.906;7.248;2024-03-22T00:23:40;36.42;;;16.77;;
43670;SDS011;29267;50.906;7.248;2024-03-22T00:26:06;37.55;;;17.23;;
43670;SDS011;29267;50.906;7.248;2024-03-22T00:28:32;39.40;;;18.17;;
43670;SDS011;29267;50.906;7.248;2024-03-22T00:30:58;38.35;;;18.55;;
43670;SDS011;29267;50.906;7.248;2024-03-22T00:33:24;38.63;;;17.55;;
43670;SDS011;29267;50.906;7.248;2024-03-22T00:35:49;40.63;;;17.65;;
43670;SDS011;29267;50.906;7.248;2024-03-22T00:38:15;37.53;;;18.05;;
43670;SDS011;29267;50.906;7.248;2024-03-22T00:40:40;41.90;;;18.60;;
43670;SDS011;29267;50.906;7.248;2024-03-22T00:43:06;36.20;;;18.90;;
43670;SDS011;29267;50.906;7.248;2024-03-22T00:45:32;41.92;;;19.08;;
43670;SDS011;29267;50.906;7.248;2024-03-22T00:47:57;39.35;;;18.00;;
43670;SDS011;29267;50.906;7.248;2024-03-22T00:50:23;39.83;;;18.58;;
43670;SDS011;29267;50.906;7.248;2024-03-22T00:52:50;34.22;;;17.17;;
43670;SDS011;29267;50.906;7.248;2024-03-22T00:55:15;35.75;;;17.10;;
43670;SDS011;29267;50.906;7.248;2024-03-22T00:57:41;35.97;;;16.45;;
43670;SDS011;29267;50.906;7.248;2024-03-22T01:00:07;35.03;;;17.17;;
43670;SDS011;29267;50.906;7.248;2024-03-22T01:02:32;37.72;;;17.30;;
43670;SDS011;29267;50.906;7.248;2024-03-22T01:04:58;40.58;;;18.52;;
43670;SDS011;29267;50.906;7.248;2024-03-22T01:07:24;44.47;;;17.50;;
43670;SDS011;29267;50.906;7.248;2024-03-22T01:09:49;40.95;;;18.10;;
43670;SDS011;29267;50.906;7.248;2024-03-22T01:12:15;38.70;;;17.98;;
43670;SDS011;29267;50.906;7.248;2024-03-22T01:14:40;40.40;;;17.38;;
43670;SDS011;29267;50.906;7.248;2024-03-22T01:17:06;39.13;;;17.70;;
43670;SDS011;29267;50.906;7.248;2024-03-22T01:19:31;43.72;;;18.90;;
43670;SDS011;29267;50.906;7.248;2024-03-22T01:21:58;35.80;;;17.13;;
43670;SDS011;29267;50.906;7.248;2024-03-22T01:24:23;41.92;;;19.55;;
43670;SDS011;29267;50.906;7.248;2024-03-22T01:26:49;40.53;;;18.75;;
43670;SDS011;29267;50.906;7.248;2024-03-22T01:29:14;35.53;;;17.15;;
43670;SDS011;29267;50.906;7.248;2024-03-22T01:31:40;40.10;;;18.45;;
43670;SDS011;29267;50.906;7.248;2024-03-22T01:34:06;40.58;;;19.42;;
43670;SDS011;29267;50.906;7.248;2024-03-22T01:36:31;46.08;;;17.75;;
43670;SDS011;29267;50.906;7.248;2024-03-22T01:38:57;36.53;;;17.75;;
43670;SDS011;29267;50.906;7.248;2024-03-22T01:41:22;42.20;;;17.77;;
43670;SDS011;29267;50.906;7.248;2024-03-22T01:43:48;40.92;;;18.17;;
43670;SDS011;29267;50.906;7.248;2024-03-22T01:46:14;40.42;;;18.52;;
43670;SDS011;29267;50.906;7.248;2024-03-22T01:48:39;31.10;;;15.52;;
43670;SDS011;29267;50.906;7.248;2024-03-22T01:51:05;41.33;;;16.08;;
43670;SDS011;29267;50.906;7.248;2024-03-22T01:53:31;37.53;;;16.10;;
43670;SDS011;29267;50.906;7.248;2024-03-22T01:55:59;38.95;;;16.05;;
43670;SDS011;29267;50.906;7.248;2024-03-22T01:58:25;32.80;;;15.95;;
43670;SDS011;29267;50.906;7.248;2024-03-22T02:00:50;33.42;;;15.77;;
43670;SDS011;29267;50.906;7.248;2024-03-22T02:03:16;34.13;;;15.63;;
43670;SDS011;29267;50.906;7.248;2024-03-22T02:05:41;34.03;;;15.27;;
43670;SDS011;29267;50.906;7.248;2024-03-22T02:08:07;29.88;;;15.73;;
43670;SDS011;29267;50.906;7.248;2024-03-22T02:10:32;26.63;;;13.18;;
43670;SDS011;29267;50.906;7.248;2024-03-22T02:12:58;36.70;;;16.10;;
43670;SDS011;29267;50.906;7.248;2024-03-22T02:15:23;34.63;;;15.48;;
43670;SDS011;29267;50.906;7.248;2024-03-22T02:17:49;35.28;;;15.23;;
43670;SDS011;29267;50.906;7.248;2024-03-22T02:20:15;33.22;;;15.13;;
43670;SDS011;29267;50.906;7.248;2024-03-22T02:22:40;34.83;;;14.73;;
43670;SDS011;29267;50.906;7.248;2024-03-22T02:25:06;29.73;;;13.98;;
43670;SDS011;29267;50.906;7.248;2024-03-22T02:27:33;36.40;;;14.18;;
43670;SDS011;29267;50.906;7.248;2024-03-22T02:29:59;34.05;;;14.05;;
43670;SDS011;29267;50.906;7.248;2024-03-22T02:32:24;32.92;;;15.07;;
43670;SDS011;29267;50.906;7.248;2024-03-22T02:34:50;36.22;;;15.25;;
43670;SDS011;29267;50.906;7.248;2024-03-22T02:37:15;29.67;;;14.80;;
43670;SDS011;29267;50.906;7.248;2024-03-22T02:39:41;32.35;;;14.30;;
43670;SDS011;29267;50.906;7.248;2024-03-22T02:42:06;28.92;;;13.43;;
43670;SDS011;29267;50.906;7.248;2024-03-22T02:44:32;29.05;;;13.20;;
43670;SDS011;29267;50.906;7.248;2024-03-22T02:46:57;27.85;;;13.85;;
43670;SDS011;29267;50.906;7.248;2024-03-22T02:49:24;31.50;;;13.32;;
43670;SDS011;29267;50.906;7.248;2024-03-22T02:51:50;27.88;;;13.40;;
43670;SDS011;29267;50.906;7.248;2024-03-22T02:54:15;35.33;;;12.85;;
43670;SDS011;29267;50.906;7.248;2024-03-22T02:56:41;31.70;;;12.55;;
43670;SDS011;29267;50.906;7.248;2024-03-22T02:59:06;26.75;;;12.35;;
43670;SDS011;29267;50.906;7.248;2024-03-22T03:01:32;29.88;;;13.05;;
43670;SDS011;29267;50.906;7.248;2024-03-22T03:03:58;26.45;;;12.20;;
43670;SDS011;29267;50.906;7.248;2024-03-22T03:06:23;30.73;;;13.18;;
43670;SDS011;29267;50.906;7.248;2024-03-22T03:08:49;26.20;;;13.23;;
43670;SDS011;29267;50.906;7.248;2024-03-22T03:11:15;35.00;;;13.75;;
43670;SDS011;29267;50.906;7.248;2024-03-22T03:13:40;30.45;;;13.23;;
43670;SDS011;29267;50.906;7.248;2024-03-22T03:16:06;25.05;;;12.35;;
43670;SDS011;29267;50.906;7.248;2024-03-22T03:18:31;34.22;;;14.60;;
43670;SDS011;29267;50.906;7.248;2024-03-22T03:20:57;22.70;;;11.48;;
43670;SDS011;29267;50.906;7.248;2024-03-22T03:23:22;30.23;;;12.55;;
43670;SDS011;29267;50.906;7.248;2024-03-22T03:25:48;25.73;;;12.63;;
43670;SDS011;29267;50.906;7.248;2024-03-22T03:28:13;27.95;;;13.85;;
43670;SDS011;29267;50.906;7.248;2024-03-22T03:30:39;25.60;;;11.63;;
43670;SDS011;29267;50.906;7.248;2024-03-22T03:33:05;26.73;;;12.25;;
43670;SDS011;29267;50.906;7.248;2024-03-22T03:35:30;22.75;;;10.93;;
43670;SDS011;29267;50.906;7.248;2024-03-22T03:37:56;22.23;;;11.30;;
43670;SDS011;29267;50.906;7.248;2024-03-22T03:40:21;24.65;;;11.05;;
43670;SDS011;29267;50.906;7.248;2024-03-22T03:42:49;26.48;;;11.40;;
43670;SDS011;29267;50.906;7.248;2024-03-22T03:45:15;24.30;;;11.00;;
43670;SDS011;29267;50.906;7.248;2024-03-22T03:47:41;29.40;;;11.50;;
43670;SDS011;29267;50.906;7.248;2024-03-22T03:50:07;21.67;;;10.85;;
43670;SDS011;29267;50.906;7.248;2024-03-22T03:52:33;27.58;;;11.23;;
43670;SDS011;29267;50.906;7.248;2024-03-22T03:54:59;24.05;;;10.75;;
43670;SDS011;29267;50.906;7.248;2024-03-22T03:57:24;25.40;;;10.68;;
43670;SDS011;29267;50.906;7.248;2024-03-22T03:59:50;23.10;;;10.98;;
43670;SDS011;29267;50.906;7.248;2024-03-22T04:02:15;25.10;;;10.52;;
43670;SDS011;29267;50.906;7.248;2024-03-22T04:04:41;20.55;;;10.40;;
43670;SDS011;29267;50.906;7.248;2024-03-22T04:07:06;21.20;;;10.57;;
43670;SDS011;29267;50.906;7.248;2024-03-22T04:09:32;25.45;;;11.32;;
43670;SDS011;29267;50.906;7.248;2024-03-22T04:11:58;28.00;;;12.40;;
43670;SDS011;29267;50.906;7.248;2024-03-22T04:14:24;26.70;;;13.00;;
43670;SDS011;29267;50.906;7.248;2024-03-22T04:16:50;20.15;;;10.15;;
43670;SDS011;29267;50.906;7.248;2024-03-22T04:19:16;25.13;;;11.30;;
43670;SDS011;29267;50.906;7.248;2024-03-22T04:21:42;23.75;;;11.90;;
43670;SDS011;29267;50.906;7.248;2024-03-22T04:24:07;27.38;;;11.98;;
43670;SDS011;29267;50.906;7.248;2024-03-22T04:26:33;28.50;;;11.75;;
43670;SDS011;29267;50.906;7.248;2024-03-22T04:28:58;26.65;;;11.63;;
43670;SDS011;29267;50.906;7.248;2024-03-22T04:31:24;25.45;;;10.18;;
43670;SDS011;29267;50.906;7.248;2024-03-22T04:33:50;22.05;;;11.35;;
43670;SDS011;29267;50.906;7.248;2024-03-22T04:36:15;24.23;;;11.43;;
43670;SDS011;29267;50.906;7.248;2024-03-22T04:38:41;26.63;;;10.23;;
43670;SDS011;29267;50.906;7.248;2024-03-22T04:41:06;20.92;;;10.82;;
43670;SDS011;29267;50.906;7.248;2024-03-22T04:43:32;22.15;;;10.13;;
43670;SDS011;29267;50.906;7.248;2024-03-22T04:45:57;24.42;;;11.23;;
43670;SDS011;29267;50.906;7.248;2024-03-22T04:48:23;24.35;;;10.93;;
43670;SDS011;29267;50.906;7.248;2024-03-22T04:50:49;26.42;;;11.60;;
43670;SDS011;29267;50.906;7.248;2024-03-22T04:53:16;17.17;;;8.85;;
43670;SDS011;29267;50.906;7.248;2024-03-22T04:55:42;23.08;;;9.70;;
43670;SDS011;29267;50.906;7.248;2024-03-22T04:58:17;20.75;;;9.48;;
43670;SDS011;29267;50.906;7.248;2024-03-22T05:00:43;21.42;;;10.27;;
43670;SDS011;29267;50.906;7.248;2024-03-22T05:03:09;20.60;;;9.80;;
43670;SDS011;29267;50.906;7.248;2024-03-22T05:05:35;19.42;;;10.50;;
43670;SDS011;29267;50.906;7.248;2024-03-22T05:08:01;26.63;;;10.90;;
43670;SDS011;29267;50.906;7.248;2024-03-22T05:10:28;23.38;;;9.75;;
43670;SDS011;29267;50.906;7.248;2024-03-22T05:12:54;23.30;;;11.27;;
43670;SDS011;29267;50.906;7.248;2024-03-22T05:15:20;22.98;;;9.95;;
43670;SDS011;29267;50.906;7.248;2024-03-22T05:17:46;19.17;;;9.52;;
43670;SDS011;29267;50.906;7.248;2024-03-22T05:20:11;17.92;;;9.00;;
43670;SDS011;29267;50.906;7.248;2024-03-22T05:22:37;23.95;;;10.35;;
43670;SDS011;29267;50.906;7.248;2024-03-22T05:25:03;24.23;;;11.23;;
43670;SDS011;29267;50.906;7.248;2024-03-22T05:27:30;24.55;;;10.75;;
43670;SDS011;29267;50.906;7.248;2024-03-22T05:29:57;19.25;;;10.05;;
43670;SDS011;29267;50.906;7.248;2024-03-22T05:32:23;16.83;;;8.43;;
43670;SDS011;29267;50.906;7.248;2024-03-22T05:34:49;20.60;;;9.57;;
43670;SDS011;29267;50.906;7.248;2024-03-22T05:37:15;19.90;;;9.77;;
43670;SDS011;29267;50.906;7.248;2024-03-22T05:39:40;22.52;;;9.68;;
43670;SDS011;29267;50.906;7.248;2024-03-22T05:42:07;18.25;;;8.68;;
43670;SDS011;29267;50.906;7.248;2024-03-22T05:44:32;20.23;;;9.90;;
43670;SDS011;29267;50.906;7.248;2024-03-22T05:46:58;23.77;;;12.00;;
43670;SDS011;29267;50.906;7.248;2024-03-22T05:49:24;19.40;;;10.23;;
43670;SDS011;29267;50.906;7.248;2024-03-22T05:51:49;18.08;;;9.45;;
43670;SDS011;29267;50.906;7.248;2024-03-22T05:54:15;16.25;;;8.68;;
43670;SDS011;29267;50.906;7.248;2024-03-22T05:56:41;18.73;;;9.50;;
43670;SDS011;29267;50.906;7.248;2024-03-22T05:59:06;15.43;;;9.13;;
43670;SDS011;29267;50.906;7.248;2024-03-22T06:01:32;18.17;;;8.50;;
43670;SDS011;29267;50.906;7.248;2024-03-22T06:03:58;21.90;;;9.75;;
43670;SDS011;29267;50.906;7.248;2024-03-22T06:06:23;19.05;;;8.88;;
43670;SDS011;29267;50.906;7.248;2024-03-22T06:08:52;17.40;;;8.38;;
43670;SDS011;29267;50.906;7.248;2024-03-22T06:11:19;18.25;;;8.63;;
43670;SDS011;29267;50.906;7.248;2024-03-22T06:13:46;15.13;;;8.70;;
43670;SDS011;29267;50.906;7.248;2024-03-22T06:16:11;16.63;;;8.82;;
43670;SDS011;29267;50.906;7.248;2024-03-22T06:18:37;15.80;;;8.63;;
43670;SDS011;29267;50.906;7.248;2024-03-22T06:21:02;19.75;;;8.27;;
43670;SDS011;29267;50.906;7.248;2024-03-22T06:23:28;16.75;;;8.60;;
43670;SDS011;29267;50.906;7.248;2024-03-22T06:25:54;17.85;;;7.95;;
43670;SDS011;29267;50.906;7.248;2024-03-22T06:28:20;17.10;;;8.10;;
43670;SDS011;29267;50.906;7.248;2024-03-22T06:30:46;17.10;;;7.72;;
43670;SDS011;29267;50.906;7.248;2024-03-22T06:33:12;19.77;;;8.40;;
43670;SDS011;29267;50.906;7.248;2024-03-22T06:35:38;21.92;;;9.55;;
43670;SDS011;29267;50.906;7.248;2024-03-22T06:38:04;15.65;;;7.80;;
43670;SDS011;29267;50.906;7.248;2024-03-22T06:40:29;19.63;;;7.55;;
43670;SDS011;29267;50.906;7.248;2024-03-22T06:42:55;14.48;;;7.05;;
43670;SDS011;29267;50.906;7.248;2024-03-22T06:45:21;12.52;;;7.25;;
43670;SDS011;29267;50.906;7.248;2024-03-22T06:47:47;17.80;;;8.55;;
43670;SDS011;29267;50.906;7.248;2024-03-22T06:50:13;17.92;;;7.03;;
43670;SDS011;29267;50.906;7.248;2024-03-22T06:52:38;11.73;;;7.03;;
43670;SDS011;29267;50.906;7.248;2024-03-22T06:55:04;17.02;;;7.55;;
43670;SDS011;29267;50.906;7.248;2024-03-22T06:57:31;14.65;;;7.55;;
43670;SDS011;29267;50.906;7.248;2024-03-22T06:59:58;14.73;;;6.22;;
43670;SDS011;29267;50.906;7.248;2024-03-22T07:02:25;12.50;;;6.85;;
43670;SDS011;29267;50.906;7.248;2024-03-22T07:04:51;13.70;;;7.45;;
43670;SDS011;29267;50.906;7.248;2024-03-22T07:07:17;17.52;;;6.78;;
43670;SDS011;29267;50.906;7.248;2024-03-22T07:09:43;14.85;;;6.75;;
43670;SDS011;29267;50.906;7.248;2024-03-22T07:12:08;16.33;;;7.93;;
43670;SDS011;29267;50.906;7.248;2024-03-22T07:14:34;14.38;;;6.85;;
43670;SDS011;29267;50.906;7.248;2024-03-22T07:16:59;14.90;;;7.28;;
43670;SDS011;29267;50.906;7.248;2024-03-22T07:19:25;14.40;;;6.88;;
43670;SDS011;29267;50.906;7.248;2024-03-22T07:21:52;12.27;;;6.88;;
43670;SDS011;29267;50.906;7.248;2024-03-22T07:24:17;11.35;;;5.90;;
43670;SDS011;29267;50.906;7.248;2024-03-22T07:26:43;18.33;;;6.60;;
43670;SDS011;29267;50.906;7.248;2024-03-22T07:29:08;14.35;;;7.05;;
43670;SDS011;29267;50.906;7.248;2024-03-22T07:31:34;10.13;;;5.57;;
43670;SDS011;29267;50.906;7.248;2024-03-22T07:34:00;11.15;;;5.90;;
43670;SDS011;29267;50.906;7.248;2024-03-22T07:36:25;12.55;;;6.25;;
43670;SDS011;29267;50.906;7.248;2024-03-22T07:38:52;11.25;;;5.82;;
43670;SDS011;29267;50.906;7.248;2024-03-22T07:41:17;12.18;;;5.82;;
43670;SDS011;29267;50.906;7.248;2024-03-22T07:43:43;9.68;;;6.13;;
43670;SDS011;29267;50.906;7.248;2024-03-22T07:46:08;12.85;;;6.57;;
43670;SDS011;29267;50.906;7.248;2024-03-22T07:48:34;10.48;;;5.72;;
43670;SDS011;29267;50.906;7.248;2024-03-22T07:51:00;13.27;;;6.10;;
43670;SDS011;29267;50.906;7.248;2024-03-22T07:53:26;10.85;;;5.82;;
43670;SDS011;29267;50.906;7.248;2024-03-22T07:55:52;10.63;;;5.25;;
43670;SDS011;29267;50.906;7.248;2024-03-22T07:58:18;11.02;;;6.35;;
43670;SDS011;29267;50.906;7.248;2024-03-22T08:00:44;14.38;;;7.28;;
43670;SDS011;29267;50.906;7.248;2024-03-22T08:03:16;10.02;;;6.53;;
43670;SDS011;29267;50.906;7.248;2024-03-22T08:05:41;12.48;;;5.78;;
43670;SDS011;29267;50.906;7.248;2024-03-22T08:08:07;12.95;;;7.00;;
43670;SDS011;29267;50.906;7.248;2024-03-22T08:10:33;12.38;;;5.97;;
43670;SDS011;29267;50.906;7.248;2024-03-22T08:12:59;12.05;;;6.75;;
43670;SDS011;29267;50.906;7.248;2024-03-22T08:15:25;11.57;;;6.90;;
43670;SDS011;29267;50.906;7.248;2024-03-22T08:17:51;14.32;;;6.28;;
43670;SDS011;29267;50.906;7.248;2024-03-22T08:20:17;10.73;;;5.97;;
43670;SDS011;29267;50.906;7.248;2024-03-22T08:22:42;11.55;;;6.35;;
43670;SDS011;29267;50.906;7.248;2024-03-22T08:25:08;10.48;;;5.57;;
43670;SDS011;29267;50.906;7.248;2024-03-22T08:27:33;10.25;;;5.68;;
43670;SDS011;29267;50.906;7.248;2024-03-22T08:29:59;10.50;;;5.60;;
43670;SDS011;29267;50.906;7.248;2024-03-22T08:32:25;12.57;;;5.93;;
43670;SDS011;29267;50.906;7.248;2024-03-22T08:34:51;16.40;;;6.05;;
43670;SDS011;29267;50.906;7.248;2024-03-22T08:37:16;12.23;;;5.80;;
43670;SDS011;29267;50.906;7.248;2024-03-22T08:39:42;12.48;;;6.20;;
43670;SDS011;29267;50.906;7.248;2024-03-22T08:42:08;12.38;;;7.75;;
43670;SDS011;29267;50.906;7.248;2024-03-22T08:44:34;14.55;;;7.25;;
43670;SDS011;29267;50.906;7.248;2024-03-22T08:47:00;16.90;;;7.75;;
43670;SDS011;29267;50.906;7.248;2024-03-22T08:49:25;17.00;;;9.57;;
43670;SDS011;29267;50.906;7.248;2024-03-22T08:51:51;16.27;;;8.55;;
43670;SDS011;29267;50.906;7.248;2024-03-22T08:54:16;18.85;;;9.95;;
43670;SDS011;29267;50.906;7.248;2024-03-22T08:56:42;21.05;;;8.85;;
43670;SDS011;29267;50.906;7.248;2024-03-22T08:59:07;17.75;;;10.20;;
43670;SDS011;29267;50.906;7.248;2024-03-22T09:01:33;15.38;;;8.90;;
43670;SDS011;29267;50.906;7.248;2024-03-22T09:03:59;15.10;;;9.30;;
43670;SDS011;29267;50.906;7.248;2024-03-22T09:06:24;16.52;;;9.45;;
43670;SDS011;29267;50.906;7.248;2024-03-22T09:08:50;15.45;;;9.82;;
43670;SDS011;29267;50.906;7.248;2024-03-22T09:11:15;16.20;;;9.52;;
43670;SDS011;29267;50.906;7.248;2024-03-22T09:13:41;17.83;;;9.15;;
43670;SDS011;29267;50.906;7.248;2024-03-22T09:16:06;19.48;;;9.15;;
43670;SDS011;29267;50.906;7.248;2024-03-22T09:18:32;20.50;;;10.02;;
43670;SDS011;29267;50.906;7.248;2024-03-22T09:20:58;20.52;;;10.05;;
43670;SDS011;29267;50.906;7.248;2024-03-22T09:23:23;17.55;;;9.95;;
43670;SDS011;29267;50.906;7.248;2024-03-22T09:25:49;17.42;;;8.73;;
43670;SDS011;29267;50.906;7.248;2024-03-22T09:28:15;17.88;;;9.60;;
43670;SDS011;29267;50.906;7.248;2024-03-22T09:30:40;18.90;;;9.27;;
43670;SDS011;29267;50.906;7.248;2024-03-22T09:33:06;14.45;;;9.45;;
43670;SDS011;29267;50.906;7.248;2024-03-22T09:35:33;17.38;;;9.95;;
43670;SDS011;29267;50.906;7.248;2024-03-22T09:37:59;14.10;;;8.75;;
43670;SDS011;29267;50.906;7.248;2024-03-22T09:40:24;16.30;;;9.73;;
43670;SDS011;29267;50.906;7.248;2024-03-22T09:42:50;16.40;;;8.95;;
43670;SDS011;29267;50.906;7.248;2024-03-22T09:45:18;16.45;;;8.57;;
43670;SDS011;29267;50.906;7.248;2024-03-22T09:47:45;23.67;;;8.52;;
43670;SDS011;29267;50.906;7.248;2024-03-22T09:50:15;13.57;;;6.80;;
43670;SDS011;29267;50.906;7.248;2024-03-22T09:52:41;11.90;;;7.10;;
43670;SDS011;29267;50.906;7.248;2024-03-22T09:55:07;15.18;;;6.63;;
43670;SDS011;29267;50.906;7.248;2024-03-22T09:57:37;12.20;;;6.10;;
43670;SDS011;29267;50.906;7.248;2024-03-22T10:00:07;13.50;;;5.85;;
43670;SDS011;29267;50.906;7.248;2024-03-22T10:02:33;10.40;;;5.95;;
43670;SDS011;29267;50.906;7.248;2024-03-22T10:04:59;11.18;;;5.70;;
43670;SDS011;29267;50.906;7.248;2024-03-22T10:07:25;9.75;;;5.35;;
43670;SDS011;29267;50.906;7.248;2024-03-22T10:09:51;11.68;;;5.43;;
43670;SDS011;29267;50.906;7.248;2024-03-22T10:12:17;13.88;;;5.32;;
43670;SDS011;29267;50.906;7.248;2024-03-22T10:14:43;8.73;;;4.35;;
43670;SDS011;29267;50.906;7.248;2024-03-22T10:17:09;8.25;;;4.38;;
43670;SDS011;29267;50.906;7.248;2024-03-22T10:19:35;8.07;;;4.97;;
43670;SDS011;29267;50.906;7.248;2024-03-22T10:22:04;8.52;;;4.90;;
43670;SDS011;29267;50.906;7.248;2024-03-22T10:24:33;8.13;;;4.47;;
43670;SDS011;29267;50.906;7.248;2024-03-22T10:26:59;5.95;;;4.00;;
43670;SDS011;29267;50.906;7.248;2024-03-22T10:29:25;8.05;;;4.68;;
43670;SDS011;29267;50.906;7.248;2024-03-22T10:31:54;8.38;;;4.68;;
43670;SDS011;29267;50.906;7.248;2024-03-22T10:34:21;10.70;;;4.40;;
43670;SDS011;29267;50.906;7.248;2024-03-22T10:36:47;9.88;;;4.95;;
43670;SDS011;29267;50.906;7.248;2024-03-22T10:39:15;7.13;;;4.47;;
43670;SDS011;29267;50.906;7.248;2024-03-22T10:41:43;12.40;;;5.25;;
43670;SDS011;29267;50.906;7.248;2024-03-22T10:44:10;9.75;;;4.22;;
43670;SDS011;29267;50.906;7.248;2024-03-22T10:46:35;9.20;;;4.22;;
43670;SDS011;29267;50.906;7.248;2024-03-22T10:49:02;8.95;;;3.92;;
43670;SDS011;29267;50.906;7.248;2024-03-22T10:51:30;9.48;;;4.40;;
43670;SDS011;29267;50.906;7.248;2024-03-22T10:53:56;12.48;;;5.45;;
43670;SDS011;29267;50.906;7.248;2024-03-22T10:56:24;11.43;;;5.07;;
43670;SDS011;29267;50.906;7.248;2024-03-22T10:58:50;9.43;;;4.55;;
43670;SDS011;29267;50.906;7.248;2024-03-22T11:01:24;7.65;;;4.22;;
43670;SDS011;29267;50.906;7.248;2024-03-22T11:03:51;7.72;;;4.38;;
43670;SDS011;29267;50.906;7.248;2024-03-22T11:06:28;7.95;;;4.55;;
43670;SDS011;29267;50.906;7.248;2024-03-22T11:08:55;7.70;;;5.13;;
43670;SDS011;29267;50.906;7.248;2024-03-22T11:11:27;7.60;;;4.85;;
43670;SDS011;29267;50.906;7.248;2024-03-22T11:13:54;10.02;;;4.70;;
43670;SDS011;29267;50.906;7.248;2024-03-22T11:16:21;8.38;;;4.10;;
43670;SDS011;29267;50.906;7.248;2024-03-22T11:18:46;8.00;;;4.38;;
43670;SDS011;29267;50.906;7.248;2024-03-22T11:21:13;7.93;;;3.80;;
43670;SDS011;29267;50.906;7.248;2024-03-22T11:23:39;8.18;;;3.58;;
43670;SDS011;29267;50.906;7.248;2024-03-22T11:26:05;6.53;;;2.78;;
43670;SDS011;29267;50.906;7.248;2024-03-22T11:28:32;9.43;;;3.33;;
43670;SDS011;29267;50.906;7.248;2024-03-22T11:30:58;4.22;;;2.65;;
43670;SDS011;29267;50.906;7.248;2024-03-22T11:33:24;5.57;;;3.33;;
43670;SDS011;29267;50.906;7.248;2024-03-22T11:35:52;5.30;;;3.17;;
43670;SDS011;29267;50.906;7.248;2024-03-22T11:38:17;8.68;;;3.65;;
43670;SDS011;29267;50.906;7.248;2024-03-22T11:40:44;5.65;;;3.10;;
43670;SDS011;29267;50.906;7.248;2024-03-22T11:43:10;6.63;;;2.95;;
43670;SDS011;29267;50.906;7.248;2024-03-22T11:45:39;7.03;;;3.28;;
43670;SDS011;29267;50.906;7.248;2024-03-22T11:48:06;11.48;;;3.85;;
43670;SDS011;29267;50.906;7.248;2024-03-22T11:50:32;4.80;;;2.95;;
43670;SDS011;29267;50.906;7.248;2024-03-22T11:52:57;5.55;;;3.55;;
43670;SDS011;29267;50.906;7.248;2024-03-22T11:55:26;9.05;;;3.38;;
43670;SDS011;29267;50.906;7.248;2024-03-22T11:57:52;6.35;;;3.70;;
43670;SDS011;29267;50.906;7.248;2024-03-22T12:00:18;7.57;;;3.75;;
43670;SDS011;29267;50.906;7.248;2024-03-22T12:02:44;8.93;;;3.90;;
43670;SDS011;29267;50.906;7.248;2024-03-22T12:05:10;5.60;;;3.47;;
43670;SDS011;29267;50.906;7.248;2024-03-22T12:07:36;5.90;;;3.40;;
43670;SDS011;29267;50.906;7.248;2024-03-22T12:10:02;6.15;;;3.10;;
43670;SDS011;29267;50.906;7.248;2024-03-22T12:12:28;4.30;;;3.47;;
43670;SDS011;29267;50.906;7.248;2024-03-22T12:14:55;5.85;;;3.35;;
43670;SDS011;29267;50.906;7.248;2024-03-22T12:17:20;8.45;;;3.55;;
43670;SDS011;29267;50.906;7.248;2024-03-22T12:19:46;6.35;;;3.53;;
43670;SDS011;29267;50.906;7.248;2024-03-22T12:22:12;6.97;;;4.22;;
43670;SDS011;29267;50.906;7.248;2024-03-22T12:24:38;5.07;;;3.15;;
43670;SDS011;29267;50.906;7.248;2024-03-22T12:27:03;6.03;;;4.38;;
43670;SDS011;29267;50.906;7.248;2024-03-22T12:29:32;4.80;;;3.10;;
43670;SDS011;29267;50.906;7.248;2024-03-22T12:31:58;5.95;;;3.97;;
43670;SDS011;29267;50.906;7.248;2024-03-22T12:34:26;9.80;;;3.80;;
43670;SDS011;29267;50.906;7.248;2024-03-22T12:36:54;6.88;;;3.72;;
43670;SDS011;29267;50.906;7.248;2024-03-22T12:39:19;9.50;;;4.15;;
43670;SDS011;29267;50.906;7.248;2024-03-22T12:41:45;7.50;;;4.40;;
43670;SDS011;29267;50.906;7.248;2024-03-22T12:44:10;7.82;;;4.22;;
43670;SDS011;29267;50.906;7.248;2024-03-22T12:46:36;11.63;;;4.25;;
43670;SDS011;29267;50.906;7.248;2024-03-22T12:49:01;12.32;;;4.40;;
43670;SDS011;29267;50.906;7.248;2024-03-22T12:51:27;10.27;;;4.65;;
43670;SDS011;29267;50.906;7.248;2024-03-22T12:53:52;8.65;;;5.35;;
43670;SDS011;29267;50.906;7.248;2024-03-22T12:56:18;7.90;;;4.05;;
43670;SDS011;29267;50.906;7.248;2024-03-22T12:58:44;9.27;;;5.00;;
43670;SDS011;29267;50.906;7.248;2024-03-22T13:01:10;11.73;;;4.55;;
43670;SDS011;29267;50.906;7.248;2024-03-22T13:03:39;10.27;;;4.15;;
43670;SDS011;29267;50.906;7.248;2024-03-22T13:06:04;7.38;;;4.50;;
43670;SDS011;29267;50.906;7.248;2024-03-22T13:08:31;9.05;;;5.40;;
43670;SDS011;29267;50.906;7.248;2024-03-22T13:10:57;9.85;;;4.30;;
43670;SDS011;29267;50.906;7.248;2024-03-22T13:13:22;7.05;;;4.40;;
43670;SDS011;29267;50.906;7.248;2024-03-22T13:15:48;7.95;;;4.65;;
43670;SDS011;29267;50.906;7.248;2024-03-22T13:18:13;14.93;;;6.40;;
43670;SDS011;29267;50.906;7.248;2024-03-22T13:20:39;7.78;;;4.55;;
43670;SDS011;29267;50.906;7.248;2024-03-22T13:23:05;9.50;;;4.65;;
43670;SDS011;29267;50.906;7.248;2024-03-22T13:25:30;7.75;;;4.40;;
43670;SDS011;29267;50.906;7.248;2024-03-22T13:27:56;11.82;;;5.25;;
43670;SDS011;29267;50.906;7.248;2024-03-22T13:30:22;17.13;;;5.70;;
43670;SDS011;29267;50.906;7.248;2024-03-22T13:32:48;14.07;;;5.53;;
43670;SDS011;29267;50.906;7.248;2024-03-22T13:35:13;12.88;;;5.85;;
43670;SDS011;29267;50.906;7.248;2024-03-22T13:37:40;11.50;;;5.40;;
43670;SDS011;29267;50.906;7.248;2024-03-22T13:40:06;9.57;;;5.95;;
43670;SDS011;29267;50.906;7.248;2024-03-22T13:42:32;11.77;;;5.90;;
43670;SDS011;29267;50.906;7.248;2024-03-22T13:44:58;14.15;;;5.95;;
43670;SDS011;29267;50.906;7.248;2024-03-22T13:47:24;8.98;;;6.05;;
43670;SDS011;29267;50.906;7.248;2024-03-22T13:49:51;8.73;;;5.75;;
43670;SDS011;29267;50.906;7.248;2024-03-22T13:52:17;10.05;;;5.18;;
43670;SDS011;29267;50.906;7.248;2024-03-22T13:54:43;8.45;;;4.50;;
43670;SDS011;29267;50.906;7.248;2024-03-22T13:57:08;9.82;;;5.30;;
43670;SDS011;29267;50.906;7.248;2024-03-22T13:59:34;8.02;;;4.97;;
43670;SDS011;29267;50.906;7.248;2024-03-22T14:02:01;11.77;;;4.70;;
43670;SDS011;29267;50.906;7.248;2024-03-22T14:04:26;9.48;;;4.65;;
43670;SDS011;29267;50.906;7.248;2024-03-22T14:06:52;9.32;;;5.55;;
43670;SDS011;29267;50.906;7.248;2024-03-22T14:09:18;10.35;;;4.78;;
43670;SDS011;29267;50.906;7.248;2024-03-22T14:11:44;11.00;;;4.90;;
43670;SDS011;29267;50.906;7.248;2024-03-22T14:14:12;8.05;;;4.72;;
43670;SDS011;29267;50.906;7.248;2024-03-22T14:16:37;6.72;;;4.22;;
43670;SDS011;29267;50.906;7.248;2024-03-22T14:19:04;9.05;;;5.15;;
43670;SDS011;29267;50.906;7.248;2024-03-22T14:21:29;10.82;;;6.20;;
43670;SDS011;29267;50.906;7.248;2024-03-22T14:23:55;7.38;;;4.70;;
43670;SDS011;29267;50.906;7.248;2024-03-22T14:26:21;10.57;;;5.38;;